createdAt,value
2018-04-28T00:00:47.511Z,8.90
2018-04-28T00:03:51.579Z,8.90
2018-04-28T00:06:54.930Z,8.90
2018-04-28T00:09:58.212Z,8.80
2018-04-28T00:13:01.583Z,8.80
2018-04-28T00:16:14.972Z,8.80
2018-04-28T00:19:18.314Z,8.80
2018-04-28T00:22:24.063Z,8.80
2018-04-28T00:25:43.652Z,8.90
2018-04-28T00:28:52.375Z,8.80
2018-04-28T00:31:56.605Z,8.80
2018-04-28T00:35:14.841Z,8.70
2018-04-28T00:38:18.232Z,8.60
2018-04-28T00:41:21.532Z,8.60
2018-04-28T00:44:27.330Z,8.50
2018-04-28T00:47:31.398Z,8.60
2018-04-28T00:50:35.531Z,8.60
2018-04-28T00:53:38.833Z,8.60
2018-04-28T00:56:53.855Z,8.70
2018-04-28T01:00:16.435Z,8.70
2018-04-28T01:03:21.390Z,8.80
2018-04-28T01:06:24.772Z,8.70
2018-04-28T01:09:28.084Z,8.60
2018-04-28T01:12:32.905Z,8.50
2018-04-28T01:15:38.997Z,8.40
2018-04-28T01:18:46.478Z,8.30
2018-04-28T01:21:49.878Z,8.40
2018-04-28T01:24:53.265Z,8.40
2018-04-28T01:27:59.795Z,8.50
2018-04-28T01:31:05.698Z,8.50
2018-04-28T01:34:15.477Z,8.50
2018-04-28T01:37:36.464Z,8.60
2018-04-28T01:40:40.392Z,8.50
2018-04-28T01:43:46.745Z,8.50
2018-04-28T01:46:54.433Z,8.50
2018-04-28T01:49:58.362Z,8.70
2018-04-28T01:53:01.749Z,8.70
2018-04-28T01:56:05.880Z,8.60
2018-04-28T01:59:09.271Z,8.60
2018-04-28T02:02:13.388Z,8.70
2018-04-28T02:05:23.345Z,8.70
2018-04-28T02:08:26.640Z,8.60
2018-04-28T02:11:34.390Z,8.50
2018-04-28T02:14:43.169Z,8.50
2018-04-28T02:21:29.497Z,8.50
2018-04-28T02:24:41.402Z,8.50
2018-04-28T02:31:41.559Z,8.70
2018-04-28T02:34:50.747Z,8.70
2018-04-28T02:38:13.405Z,8.60
2018-04-28T02:45:17.504Z,8.40
2018-04-28T02:48:26.588Z,8.30
2018-04-28T02:55:02.010Z,8.20
2018-04-28T02:58:11.127Z,8.20
2018-04-28T03:01:32.447Z,8.10
2018-04-28T03:04:35.763Z,8.10
2018-04-28T03:11:21.721Z,8.10
2018-04-28T03:14:25.037Z,8.00
2018-04-28T03:17:33.269Z,7.90
2018-04-28T03:28:07.403Z,7.70
2018-04-28T03:31:12.300Z,7.70
2018-04-28T03:34:28.264Z,7.70
2018-04-28T03:37:33.403Z,7.70
2018-04-28T03:40:37.678Z,7.70
2018-04-28T03:43:41.844Z,7.60
2018-04-28T03:46:45.240Z,7.60
2018-04-28T03:49:52.125Z,7.60
2018-04-28T03:53:01.358Z,7.60
2018-04-28T03:56:06.129Z,7.60
2018-04-28T03:59:27.827Z,7.80
2018-04-28T04:02:49.049Z,7.70
2018-04-28T04:06:04.824Z,7.60
2018-04-28T04:09:33.316Z,7.60
2018-04-28T04:16:22.310Z,7.60
2018-04-28T04:23:08.216Z,7.50
2018-04-28T04:26:22.069Z,7.50
2018-04-28T04:29:38.054Z,7.50
2018-04-28T04:32:41.974Z,7.40
2018-04-28T04:35:56.750Z,7.50
2018-04-28T04:42:55.742Z,7.90
2018-04-28T04:46:04.681Z,7.90
2018-04-28T04:49:32.479Z,8.00
2018-04-28T04:52:47.485Z,8.00
2018-04-28T04:56:03.443Z,8.30
2018-04-28T05:03:11.368Z,8.40
2018-04-28T05:06:34.243Z,8.40
2018-04-28T05:13:30.577Z,8.70
2018-04-28T05:16:40.598Z,8.70
2018-04-28T05:20:01.777Z,8.60
2018-04-28T05:23:17.371Z,8.60
2018-04-28T05:30:28.986Z,9.10
2018-04-28T05:33:44.105Z,9.10
2018-04-28T05:36:56.197Z,9.10
2018-04-28T05:40:23.671Z,9.30
2018-04-28T05:43:57.607Z,9.30
2018-04-28T05:50:56.132Z,9.60
2018-04-28T05:54:17.277Z,9.80
2018-04-28T05:57:35.506Z,9.90
2018-04-28T06:04:28.888Z,10.00
2018-04-28T06:18:48.755Z,10.30
2018-04-28T06:21:52.087Z,10.30
2018-04-28T06:24:56.282Z,10.40
2018-04-28T06:27:59.627Z,10.40
2018-04-28T06:31:02.976Z,10.50
2018-04-28T06:34:06.297Z,10.60
2018-04-28T06:37:09.609Z,10.50
2018-04-28T06:40:13.790Z,10.40
2018-04-28T06:43:17.124Z,10.40
2018-04-28T06:46:21.315Z,10.50
2018-04-28T06:49:24.702Z,10.50
2018-04-28T06:52:28.093Z,10.60
2018-04-28T06:55:31.502Z,10.60
2018-04-28T06:58:34.849Z,10.50
2018-04-28T07:01:38.198Z,10.70
2018-04-28T07:04:41.517Z,11.00
2018-04-28T07:07:44.907Z,11.20
2018-04-28T07:10:48.233Z,11.60
2018-04-28T07:13:52.315Z,11.80
2018-04-28T07:16:55.638Z,11.70
2018-04-28T07:19:59.781Z,12.10
2018-04-28T07:23:03.131Z,12.10
2018-04-28T07:26:06.534Z,12.10
2018-04-28T07:29:09.866Z,12.50
2018-04-28T07:32:14.030Z,12.10
2018-04-28T07:35:17.454Z,12.10
2018-04-28T07:38:20.773Z,12.00
2018-04-28T07:41:24.847Z,12.20
2018-04-28T07:44:28.174Z,12.20
2018-04-28T07:47:31.584Z,12.20
2018-04-28T07:50:34.917Z,12.20
2018-04-28T07:53:38.238Z,12.40
2018-04-28T07:56:41.667Z,12.50
2018-04-28T07:59:45.062Z,12.50
2018-04-28T08:02:48.814Z,12.70
2018-04-28T08:05:52.134Z,12.90
2018-04-28T08:08:55.448Z,12.80
2018-04-28T08:11:58.766Z,12.70
2018-04-28T08:15:02.102Z,12.50
2018-04-28T08:18:06.327Z,12.00
2018-04-28T08:21:09.672Z,12.00
2018-04-28T08:24:12.980Z,11.90
2018-04-28T08:27:16.308Z,11.80
2018-04-28T08:30:20.437Z,12.00
2018-04-28T08:33:23.790Z,11.90
2018-04-28T08:36:27.898Z,12.40
2018-04-28T08:39:31.224Z,12.40
2018-04-28T08:42:34.597Z,12.70
2018-04-28T08:45:38.021Z,12.90
2018-04-28T08:48:41.329Z,12.90
2018-04-28T08:51:45.443Z,13.30
2018-04-28T08:54:49.543Z,13.50
2018-04-28T08:57:52.862Z,13.50
2018-04-28T09:00:59.632Z,13.80
2018-04-28T09:04:02.951Z,13.80
2018-04-28T09:07:45.257Z,13.70
2018-04-28T09:10:49.333Z,13.60
2018-04-28T09:13:52.666Z,13.50
2018-04-28T09:16:56.737Z,13.50
2018-04-28T09:20:00.140Z,13.40
2018-04-28T09:23:03.456Z,13.40
2018-04-28T09:26:06.889Z,13.30
2018-04-28T09:29:10.248Z,13.30
2018-04-28T09:32:13.654Z,13.40
2018-04-28T09:35:17.742Z,13.20
2018-04-28T09:38:21.054Z,13.20
2018-04-28T09:41:24.452Z,13.10
2018-04-28T09:44:27.793Z,13.30
2018-04-28T09:47:31.865Z,13.20
2018-04-28T09:50:35.283Z,13.30
2018-04-28T09:53:38.784Z,13.30
2018-04-28T09:56:43.226Z,13.10
2018-04-28T09:59:47.731Z,12.70
2018-04-28T10:02:51.218Z,12.70
2018-04-28T10:05:54.640Z,12.50
2018-04-28T10:08:57.952Z,12.50
2018-04-28T10:12:02.056Z,12.70
2018-04-28T10:15:05.490Z,12.60
2018-04-28T10:18:08.817Z,12.50
2018-04-28T10:21:12.137Z,12.60
2018-04-28T10:24:15.464Z,12.60
2018-04-28T10:27:19.655Z,12.30
2018-04-28T10:30:23.047Z,12.30
2018-04-28T10:33:26.472Z,12.30
2018-04-28T10:36:30.674Z,12.20
2018-04-28T10:39:33.996Z,12.20
2018-04-28T10:42:37.321Z,12.00
2018-04-28T10:45:40.675Z,12.10
2018-04-28T10:48:43.993Z,12.30
2018-04-28T10:51:48.085Z,12.30
2018-04-28T10:54:51.406Z,12.20
2018-04-28T10:57:54.737Z,12.20
2018-04-28T11:00:58.053Z,12.10
2018-04-28T11:04:01.365Z,12.00
2018-04-28T11:07:04.768Z,11.90
2018-04-28T11:10:08.178Z,11.70
2018-04-28T11:13:11.508Z,11.80
2018-04-28T11:16:14.877Z,11.90
2018-04-28T11:19:18.206Z,12.10
2018-04-28T11:22:22.381Z,12.90
2018-04-28T11:25:25.782Z,12.90
2018-04-28T11:28:29.824Z,14.30
2018-04-28T11:31:33.906Z,14.50
2018-04-28T11:34:37.231Z,14.50
2018-04-28T11:37:40.618Z,14.80
2018-04-28T11:40:43.937Z,14.80
2018-04-28T11:43:47.302Z,14.60
2018-04-28T11:46:50.649Z,14.60
2018-04-28T11:52:59.564Z,14.50
2018-04-28T11:56:03.012Z,14.40
2018-04-28T11:59:06.398Z,14.40
2018-04-28T12:02:09.813Z,14.40
2018-04-28T12:05:13.236Z,14.00
2018-04-28T12:08:16.513Z,14.00
2018-04-28T12:11:19.833Z,14.10
2018-04-28T12:14:23.164Z,14.10
2018-04-28T12:17:26.489Z,14.30
2018-04-28T12:20:30.664Z,15.10
2018-04-28T12:23:33.989Z,15.00
2018-04-28T12:26:37.380Z,14.90
2018-04-28T12:29:40.772Z,15.10
2018-04-28T12:32:44.056Z,15.20
2018-04-28T12:35:50.192Z,15.10
2018-04-28T12:38:53.535Z,15.30
2018-04-28T12:41:56.879Z,15.40
2018-04-28T12:45:00.206Z,15.50
2018-04-28T12:48:03.542Z,15.40
2018-04-28T12:51:06.932Z,15.70
2018-04-28T12:54:10.267Z,16.20
2018-04-28T12:57:14.446Z,17.30
2018-04-28T13:00:17.837Z,17.30
2018-04-28T13:03:21.247Z,17.50
2018-04-28T13:06:24.640Z,17.80
2018-04-28T13:09:27.949Z,17.80
2018-04-28T13:12:31.391Z,17.80
2018-04-28T13:15:34.703Z,17.90
2018-04-28T13:18:38.062Z,17.90
2018-04-28T13:21:41.499Z,17.20
2018-04-28T13:24:44.850Z,16.70
2018-04-28T13:27:48.235Z,16.40
2018-04-28T13:30:51.645Z,16.20
2018-04-28T13:33:55.947Z,16.40
2018-04-28T13:37:00.279Z,16.40
2018-04-28T13:40:03.690Z,16.30
2018-04-28T13:43:07.013Z,16.20
2018-04-28T13:46:11.215Z,16.40
2018-04-28T13:49:14.536Z,16.40
2018-04-28T13:52:18.646Z,16.30
2018-04-28T13:55:22.755Z,16.30
2018-04-28T13:58:26.136Z,16.30
2018-04-28T14:01:29.542Z,16.40
2018-04-28T14:04:32.925Z,16.80
2018-04-28T14:07:36.408Z,17.50
2018-04-28T14:10:39.833Z,18.30
2018-04-28T14:13:43.155Z,18.00
2018-04-28T14:16:46.539Z,18.20
2018-04-28T14:19:50.757Z,17.90
2018-04-28T14:22:54.085Z,17.90
2018-04-28T14:25:57.414Z,17.80
2018-04-28T14:29:00.761Z,17.90
2018-04-28T14:32:04.142Z,18.00
2018-04-28T14:35:07.606Z,17.90
2018-04-28T14:38:10.917Z,17.70
2018-04-28T14:41:14.396Z,17.70
2018-04-28T14:44:17.764Z,17.70
2018-04-28T14:47:21.137Z,17.90
2018-04-28T14:50:24.465Z,17.90
2018-04-28T14:53:27.785Z,17.20
2018-04-28T14:56:31.154Z,17.20
2018-04-28T14:59:34.544Z,17.30
2018-04-28T15:02:39.478Z,17.20
2018-04-28T15:05:42.874Z,17.20
2018-04-28T15:08:46.276Z,17.10
2018-04-28T15:11:49.597Z,17.00
2018-04-28T15:14:52.985Z,16.80
2018-04-28T15:17:57.073Z,16.20
2018-04-28T15:21:00.394Z,16.20
2018-04-28T15:24:03.722Z,16.00
2018-04-28T15:27:07.901Z,16.60
2018-04-28T15:30:11.227Z,16.60
2018-04-28T15:33:14.558Z,16.40
2018-04-28T15:36:17.891Z,16.70
2018-04-28T15:39:21.242Z,17.20
2018-04-28T15:42:24.584Z,17.20
2018-04-28T15:45:27.912Z,16.80
2018-04-28T15:48:31.303Z,16.70
2018-04-28T15:51:34.643Z,16.50
2018-04-28T15:54:38.002Z,17.00
2018-04-28T15:57:41.339Z,17.10
2018-04-28T16:00:44.701Z,17.40
2018-04-28T16:03:48.106Z,17.10
2018-04-28T16:06:51.424Z,17.10
2018-04-28T16:09:55.506Z,17.60
2018-04-28T16:12:58.963Z,17.60
2018-04-28T16:16:02.301Z,17.70
2018-04-28T16:19:05.704Z,17.80
2018-04-28T16:22:09.093Z,17.50
2018-04-28T16:25:12.422Z,17.40
2018-04-28T16:28:15.748Z,16.80
2018-04-28T16:31:19.101Z,16.70
2018-04-28T16:34:22.430Z,16.30
2018-04-28T16:37:26.508Z,15.70
2018-04-28T16:40:29.930Z,15.60
2018-04-28T16:43:33.247Z,15.60
2018-04-28T16:46:38.167Z,15.40
2018-04-28T16:49:41.489Z,15.40
2018-04-28T16:52:45.657Z,15.40
2018-04-28T16:55:48.983Z,15.30
2018-04-28T16:58:52.382Z,15.30
2018-04-28T17:01:55.708Z,15.10
2018-04-28T17:04:59.112Z,14.80
2018-04-28T17:08:02.455Z,14.70
2018-04-28T17:11:05.794Z,14.70
2018-04-28T17:14:09.966Z,14.60
2018-04-28T17:17:13.333Z,14.60
2018-04-28T17:20:17.381Z,14.50
2018-04-28T17:23:20.811Z,14.50
2018-04-28T17:26:24.230Z,14.40
2018-04-28T17:29:28.305Z,14.20
2018-04-28T17:32:31.655Z,14.20
2018-04-28T17:35:34.980Z,14.10
2018-04-28T17:38:38.289Z,14.00
2018-04-28T17:41:41.623Z,13.90
2018-04-28T17:44:44.977Z,14.00
2018-04-28T17:47:48.309Z,13.80
2018-04-28T17:50:51.650Z,13.80
2018-04-28T17:53:54.966Z,13.70
2018-04-28T17:56:58.291Z,13.60
2018-04-28T18:00:01.610Z,13.60
2018-04-28T18:03:04.984Z,13.50
2018-04-28T18:06:08.289Z,13.50
2018-04-28T18:09:11.704Z,13.40
2018-04-28T18:12:15.089Z,13.40
2018-04-28T18:15:18.502Z,13.30
2018-04-28T18:18:21.840Z,13.30
2018-04-28T18:21:25.180Z,13.20
2018-04-28T18:24:28.585Z,13.20
2018-04-28T18:27:31.992Z,13.10
2018-04-28T18:30:35.387Z,13.10
2018-04-28T18:33:38.697Z,13.00
2018-04-28T18:36:42.033Z,12.90
2018-04-28T18:39:45.360Z,12.90
2018-04-28T18:42:49.042Z,12.80
2018-04-28T18:45:52.382Z,12.70
2018-04-28T18:48:55.793Z,12.60
2018-04-28T18:51:59.195Z,12.50
2018-04-28T18:55:02.561Z,12.40
2018-04-28T18:58:05.882Z,12.30
2018-04-28T19:01:09.277Z,12.30
2018-04-28T19:04:12.594Z,12.20
2018-04-28T19:07:15.942Z,12.10
2018-04-28T19:10:19.266Z,12.20
2018-04-28T19:13:22.669Z,12.20
2018-04-28T19:16:25.984Z,12.20
2018-04-28T19:19:29.328Z,12.30
2018-04-28T19:22:32.702Z,12.20
2018-04-28T19:25:36.786Z,12.30
2018-04-28T19:28:40.122Z,12.20
2018-04-28T19:31:44.214Z,12.20
2018-04-28T19:34:47.555Z,12.10
2018-04-28T19:37:50.889Z,12.10
2018-04-28T19:40:54.197Z,12.10
2018-04-28T19:43:57.525Z,12.00
2018-04-28T19:47:02.027Z,11.80
2018-04-28T19:50:05.433Z,11.90
2018-04-28T19:53:08.752Z,11.80
2018-04-28T19:56:12.942Z,11.70
2018-04-28T19:59:16.252Z,11.70
2018-04-28T20:02:19.672Z,11.70
2018-04-28T20:05:23.863Z,11.60
2018-04-28T20:08:27.195Z,11.60
2018-04-28T20:11:32.088Z,11.60
2018-04-28T20:14:35.478Z,11.60
2018-04-28T20:17:38.912Z,11.60
2018-04-28T20:20:43.031Z,11.60
2018-04-28T20:24:04.939Z,11.50
2018-04-28T20:27:08.337Z,11.50
2018-04-28T20:30:11.678Z,11.50
2018-04-28T20:33:15.026Z,11.40
2018-04-28T20:36:18.451Z,11.30
2018-04-28T20:39:21.766Z,11.30
2018-04-28T20:42:25.863Z,11.20
2018-04-28T20:45:29.251Z,11.20
2018-04-28T20:48:32.565Z,11.20
2018-04-28T20:51:35.963Z,11.20
2018-04-28T20:54:39.290Z,11.20
2018-04-28T20:57:43.755Z,11.10
2018-04-28T21:00:47.192Z,11.10
2018-04-28T21:03:50.533Z,11.10
2018-04-28T21:06:53.842Z,11.10
2018-04-28T21:09:57.201Z,11.10
2018-04-28T21:13:01.398Z,11.10
2018-04-28T21:16:04.713Z,11.10
2018-04-28T21:19:08.050Z,11.10
2018-04-28T21:22:11.365Z,11.10
2018-04-28T21:25:14.697Z,11.10
2018-04-28T21:28:18.092Z,11.00
2018-04-28T21:31:21.407Z,10.90
2018-04-28T21:34:25.514Z,10.80
2018-04-28T21:37:28.922Z,10.80
2018-04-28T21:40:32.263Z,10.80
2018-04-28T21:43:35.599Z,10.80
2018-04-28T21:46:39.005Z,10.80
2018-04-28T21:49:42.337Z,10.70
2018-04-28T21:52:45.675Z,10.80
2018-04-28T21:55:49.072Z,10.80
2018-04-28T21:58:52.405Z,10.80
2018-04-28T22:01:55.725Z,10.70
2018-04-28T22:04:59.828Z,10.70
2018-04-28T22:08:03.214Z,10.60
2018-04-28T22:11:07.993Z,10.60
2018-04-28T22:14:12.706Z,10.60
2018-04-28T22:17:18.570Z,10.60
2018-04-28T22:20:23.309Z,10.60
2018-04-28T22:23:28.269Z,10.50
2018-04-28T22:26:32.996Z,10.50
2018-04-28T22:29:39.152Z,10.40
2018-04-28T22:32:43.962Z,10.40
2018-04-28T22:35:49.304Z,10.30
2018-04-28T22:38:54.822Z,10.30
2018-04-28T22:41:59.585Z,10.30
2018-04-28T22:45:05.326Z,10.40
2018-04-28T22:48:10.015Z,10.40
2018-04-28T22:51:14.783Z,10.40
2018-04-28T22:54:19.503Z,10.50
2018-04-28T22:57:24.152Z,10.50
2018-04-28T23:00:29.288Z,10.40
2018-04-28T23:03:34.129Z,10.40
2018-04-28T23:06:38.257Z,10.30
2018-04-28T23:09:42.320Z,10.20
2018-04-28T23:12:45.640Z,10.20
2018-04-28T23:15:49.022Z,10.20
2018-04-28T23:18:52.357Z,10.10
2018-04-28T23:21:55.681Z,10.10
2018-04-28T23:24:59.004Z,10.20
2018-04-28T23:28:02.321Z,10.20
2018-04-28T23:31:05.712Z,10.20
2018-04-28T23:34:09.033Z,10.30
2018-04-28T23:37:12.411Z,10.30
2018-04-28T23:40:15.736Z,10.30
2018-04-28T23:43:19.114Z,10.30
2018-04-28T23:46:22.432Z,10.30
2018-04-28T23:49:25.747Z,10.20
2018-04-28T23:52:29.828Z,10.10
2018-04-28T23:55:33.166Z,10.10
2018-04-28T23:58:37.247Z,10.00
